createdAt,value
2023-05-20T00:00:29.174Z,100.00
2023-05-20T00:05:25.799Z,100.00
2023-05-20T00:10:22.187Z,100.00
2023-05-20T00:15:18.583Z,100.00
2023-05-20T00:20:15.196Z,100.00
2023-05-20T00:25:11.657Z,100.00
2023-05-20T00:30:08.566Z,100.00
2023-05-20T00:35:05.702Z,100.00
2023-05-20T00:40:02.150Z,100.00
2023-05-20T00:44:58.594Z,100.00
2023-05-20T00:49:55.160Z,100.00
2023-05-20T00:54:52.525Z,100.00
2023-05-20T00:59:49.007Z,100.00
2023-05-20T01:04:47.260Z,100.00
2023-05-20T01:09:44.369Z,100.00
2023-05-20T01:14:48.350Z,100.00
2023-05-20T01:19:45.747Z,100.00
2023-05-20T01:24:44.057Z,100.00
2023-05-20T01:29:42.074Z,100.00
2023-05-20T01:34:41.543Z,100.00
2023-05-20T01:39:41.663Z,100.00
2023-05-20T01:44:38.334Z,100.00
2023-05-20T01:49:34.780Z,100.00
2023-05-20T01:54:31.386Z,100.00
2023-05-20T01:59:27.787Z,100.00
2023-05-20T02:04:24.152Z,100.00
2023-05-20T02:09:21.585Z,100.00
2023-05-20T02:14:18.126Z,100.00
2023-05-20T02:19:19.748Z,100.00
2023-05-20T02:24:16.697Z,100.00
2023-05-20T02:29:13.128Z,100.00
2023-05-20T02:34:09.599Z,100.00
2023-05-20T02:39:06.876Z,100.00
2023-05-20T02:44:03.297Z,100.00
2023-05-20T02:48:59.712Z,100.00
2023-05-20T02:53:56.117Z,100.00
2023-05-20T02:58:52.612Z,100.00
2023-05-20T03:03:49.094Z,100.00
2023-05-20T03:08:45.517Z,100.00
2023-05-20T03:13:42.185Z,100.00
2023-05-20T03:18:39.143Z,100.00
2023-05-20T03:23:35.562Z,100.00
2023-05-20T03:28:31.938Z,100.00
2023-05-20T03:33:29.751Z,100.00
2023-05-20T03:38:26.984Z,100.00
2023-05-20T03:43:23.477Z,100.00
2023-05-20T03:48:20.578Z,100.00
2023-05-20T03:53:17.471Z,100.00
2023-05-20T03:58:15.416Z,100.00
2023-05-20T04:03:12.480Z,100.00
2023-05-20T04:08:09.911Z,100.00
2023-05-20T04:13:06.458Z,100.00
2023-05-20T04:18:03.050Z,100.00
2023-05-20T04:22:59.555Z,100.00
2023-05-20T04:27:57.594Z,100.00
2023-05-20T04:32:54.603Z,100.00
2023-05-20T04:37:53.122Z,100.00
2023-05-20T04:42:49.559Z,100.00
2023-05-20T04:47:46.148Z,100.00
2023-05-20T04:52:43.667Z,100.00
2023-05-20T04:57:43.549Z,100.00
2023-05-20T05:02:40.351Z,100.00
2023-05-20T05:07:36.805Z,100.00
2023-05-20T05:12:33.214Z,100.00
2023-05-20T05:17:29.715Z,100.00
2023-05-20T05:22:26.130Z,100.00
2023-05-20T05:27:23.023Z,100.00
2023-05-20T05:32:19.570Z,100.00
2023-05-20T05:37:16.021Z,100.00
2023-05-20T05:42:12.498Z,100.00
2023-05-20T05:47:09.114Z,100.00
2023-05-20T05:52:05.707Z,100.00
2023-05-20T05:57:02.099Z,100.00
2023-05-20T06:01:58.587Z,100.00
2023-05-20T06:06:55.032Z,100.00
2023-05-20T06:11:51.461Z,100.00
2023-05-20T06:16:47.906Z,100.00
2023-05-20T06:21:44.334Z,100.00
2023-05-20T06:26:40.824Z,100.00
2023-05-20T06:31:37.369Z,100.00
2023-05-20T06:36:33.974Z,100.00
2023-05-20T06:41:30.641Z,100.00
2023-05-20T06:46:27.059Z,100.00
2023-05-20T06:51:23.486Z,100.00
2023-05-20T06:56:19.974Z,100.00
2023-05-20T07:01:18.151Z,100.00
2023-05-20T07:06:14.907Z,100.00
2023-05-20T07:11:11.282Z,100.00
2023-05-20T07:16:07.799Z,100.00
2023-05-20T07:21:04.178Z,100.00
2023-05-20T07:26:00.591Z,100.00
2023-05-20T07:30:57.936Z,100.00
2023-05-20T07:35:54.564Z,100.00
2023-05-20T07:40:51.375Z,100.00
2023-05-20T07:45:47.804Z,100.00
2023-05-20T07:50:44.591Z,100.00
2023-05-20T07:55:41.092Z,100.00
2023-05-20T08:00:37.481Z,100.00
2023-05-20T08:05:36.940Z,100.00
2023-05-20T08:10:33.351Z,100.00
2023-05-20T08:15:29.851Z,100.00
2023-05-20T08:20:26.569Z,100.00
2023-05-20T08:25:23.676Z,100.00
2023-05-20T08:30:20.129Z,100.00
2023-05-20T08:35:16.608Z,100.00
2023-05-20T08:40:13.503Z,100.00
2023-05-20T08:45:15.670Z,100.00
2023-05-20T08:50:13.447Z,100.00
2023-05-20T08:55:14.446Z,100.00
2023-05-20T09:00:13.436Z,100.00
2023-05-20T09:05:11.662Z,100.00
2023-05-20T09:10:09.533Z,100.00
2023-05-20T09:15:07.483Z,99.15
2023-05-20T09:20:08.690Z,100.00
2023-05-20T09:25:06.591Z,100.00
2023-05-20T09:30:07.010Z,100.00
2023-05-20T09:35:04.332Z,100.00
2023-05-20T09:40:07.191Z,100.00
2023-05-20T09:45:04.694Z,98.95
2023-05-20T09:50:03.342Z,93.83
2023-05-20T09:55:03.026Z,92.15
2023-05-20T09:59:59.483Z,92.47
2023-05-20T10:04:59.168Z,96.56
2023-05-20T10:10:33.740Z,94.81
2023-05-20T10:15:51.988Z,86.22
2023-05-20T10:20:50.106Z,91.07
2023-05-20T10:25:54.841Z,100.00
2023-05-20T10:30:51.340Z,100.00
2023-05-20T10:35:50.515Z,100.00
2023-05-20T10:40:47.946Z,99.15
2023-05-20T10:45:58.185Z,100.00
2023-05-20T10:50:59.763Z,93.82
2023-05-20T10:55:56.677Z,97.05
2023-05-20T11:00:55.150Z,99.17
2023-05-20T11:05:51.778Z,100.00
2023-05-20T11:10:48.374Z,100.00
2023-05-20T11:15:44.800Z,100.00
2023-05-20T11:20:41.602Z,100.00
2023-05-20T11:25:38.210Z,100.00
2023-05-20T11:30:34.833Z,100.00
2023-05-20T11:35:32.953Z,100.00
2023-05-20T11:40:38.820Z,100.00
2023-05-20T11:45:45.498Z,99.84
2023-05-20T11:50:43.849Z,100.00
2023-05-20T11:55:57.824Z,100.00
2023-05-20T12:01:01.844Z,100.00
2023-05-20T12:06:05.941Z,98.50
2023-05-20T12:11:02.357Z,87.70
2023-05-20T12:15:58.817Z,83.33
2023-05-20T12:20:55.195Z,81.93
2023-05-20T12:25:51.655Z,82.15
2023-05-20T12:30:48.036Z,86.52
2023-05-20T12:35:44.710Z,88.95
2023-05-20T12:40:41.095Z,90.92
2023-05-20T12:45:37.511Z,89.04
2023-05-20T12:50:34.242Z,88.31
2023-05-20T12:55:30.885Z,87.79
2023-05-20T13:00:27.335Z,82.85
2023-05-20T13:05:23.741Z,83.06
2023-05-20T13:10:20.323Z,87.70
2023-05-20T13:15:16.885Z,93.04
2023-05-20T13:20:13.482Z,90.99
2023-05-20T13:25:09.878Z,91.39
2023-05-20T13:30:07.112Z,88.85
2023-05-20T13:35:03.721Z,83.66
2023-05-20T13:40:00.154Z,85.43
2023-05-20T13:44:56.588Z,82.00
2023-05-20T13:49:53.032Z,87.33
2023-05-20T13:54:49.386Z,92.08
2023-05-20T13:59:45.791Z,99.35
2023-05-20T14:04:44.882Z,96.02
2023-05-20T14:09:41.952Z,97.23
2023-05-20T14:14:38.372Z,99.84
2023-05-20T14:19:34.914Z,100.00
2023-05-20T14:24:31.432Z,100.00
2023-05-20T14:29:27.799Z,100.00
2023-05-20T14:34:24.182Z,100.00
2023-05-20T14:39:20.979Z,100.00
2023-05-20T14:44:17.345Z,100.00
2023-05-20T14:49:13.810Z,100.00
2023-05-20T14:54:10.400Z,100.00
2023-05-20T14:59:07.167Z,100.00
2023-05-20T15:04:03.735Z,100.00
2023-05-20T15:09:00.190Z,100.00
2023-05-20T15:13:56.700Z,100.00
2023-05-20T15:18:53.141Z,100.00
2023-05-20T15:23:49.624Z,100.00
2023-05-20T15:28:46.104Z,100.00
2023-05-20T15:33:42.600Z,100.00
2023-05-20T15:38:39.164Z,100.00
2023-05-20T15:43:36.123Z,100.00
2023-05-20T15:48:34.708Z,100.00
2023-05-20T15:53:32.255Z,100.00
2023-05-20T15:58:28.641Z,100.00
2023-05-20T16:03:25.119Z,100.00
2023-05-20T16:08:23.773Z,100.00
2023-05-20T16:13:20.143Z,100.00
2023-05-20T16:18:16.675Z,100.00
2023-05-20T16:23:13.038Z,100.00
2023-05-20T16:28:09.410Z,100.00
2023-05-20T16:33:05.926Z,100.00
2023-05-20T16:38:02.348Z,100.00
2023-05-20T16:42:59.048Z,100.00
2023-05-20T16:47:56.373Z,100.00
2023-05-20T16:52:52.925Z,100.00
2023-05-20T16:57:50.503Z,100.00
2023-05-20T17:02:47.002Z,100.00
2023-05-20T17:07:43.376Z,100.00
2023-05-20T17:12:39.734Z,100.00
2023-05-20T17:17:36.129Z,100.00
2023-05-20T17:22:32.577Z,100.00
2023-05-20T17:27:29.604Z,100.00
2023-05-20T17:32:26.368Z,100.00
2023-05-20T17:37:22.768Z,100.00
2023-05-20T17:42:19.129Z,100.00
2023-05-20T17:47:15.814Z,100.00
2023-05-20T17:52:12.203Z,100.00
2023-05-20T17:57:08.707Z,100.00
2023-05-20T18:02:06.235Z,100.00
2023-05-20T18:07:04.120Z,100.00
2023-05-20T18:12:00.692Z,100.00
2023-05-20T18:16:57.465Z,100.00
2023-05-20T18:21:53.918Z,100.00
2023-05-20T18:26:50.597Z,100.00
2023-05-20T18:31:46.961Z,100.00
2023-05-20T18:36:43.409Z,100.00
2023-05-20T18:46:42.840Z,100.00
2023-05-20T18:51:40.264Z,100.00
2023-05-20T18:56:36.926Z,100.00
2023-05-20T19:01:33.898Z,100.00
2023-05-20T19:06:31.787Z,100.00
2023-05-20T19:11:28.486Z,100.00
2023-05-20T19:16:26.091Z,100.00
2023-05-20T19:21:22.576Z,100.00
2023-05-20T19:26:18.912Z,100.00
2023-05-20T19:31:20.819Z,100.00
2023-05-20T19:36:17.537Z,100.00
2023-05-20T19:41:14.006Z,100.00
2023-05-20T19:46:10.481Z,100.00
2023-05-20T19:51:06.927Z,100.00
2023-05-20T19:56:03.674Z,100.00
2023-05-20T20:01:00.054Z,100.00
2023-05-20T20:05:57.001Z,100.00
2023-05-20T20:10:53.580Z,100.00
2023-05-20T20:15:49.916Z,100.00
2023-05-20T20:20:46.248Z,100.00
2023-05-20T20:25:43.824Z,100.00
2023-05-20T20:30:40.591Z,100.00
2023-05-20T20:35:37.524Z,100.00
2023-05-20T20:40:39.136Z,100.00
2023-05-20T20:45:38.206Z,100.00
2023-05-20T20:50:35.670Z,100.00
2023-05-20T20:55:32.077Z,100.00
2023-05-20T21:00:28.429Z,100.00
2023-05-20T21:05:26.376Z,100.00
2023-05-20T21:10:22.775Z,100.00
2023-05-20T21:15:19.124Z,100.00
2023-05-20T21:20:16.246Z,100.00
2023-05-20T21:25:13.526Z,100.00
2023-05-20T21:30:11.351Z,100.00
2023-05-20T21:35:08.477Z,100.00
2023-05-20T21:40:05.533Z,100.00
2023-05-20T21:45:01.946Z,100.00
2023-05-20T21:49:58.468Z,100.00
2023-05-20T21:54:55.046Z,100.00
2023-05-20T21:59:51.548Z,100.00
2023-05-20T22:04:49.166Z,100.00
2023-05-20T22:09:45.731Z,100.00
2023-05-20T22:14:42.108Z,100.00
2023-05-20T22:19:38.716Z,100.00
2023-05-20T22:24:35.143Z,100.00
2023-05-20T22:29:32.445Z,100.00
2023-05-20T22:34:28.951Z,100.00
2023-05-20T22:39:25.620Z,100.00
2023-05-20T22:44:21.983Z,100.00
2023-05-20T22:49:18.903Z,100.00
2023-05-20T22:54:16.392Z,100.00
2023-05-20T22:59:13.003Z,100.00
2023-05-20T23:04:09.393Z,100.00
2023-05-20T23:09:07.461Z,100.00
2023-05-20T23:14:04.143Z,100.00
2023-05-20T23:19:00.601Z,100.00
2023-05-20T23:23:57.082Z,100.00
2023-05-20T23:28:53.492Z,100.00
2023-05-20T23:33:49.929Z,100.00
2023-05-20T23:38:46.367Z,100.00
2023-05-20T23:43:42.977Z,100.00
2023-05-20T23:48:39.793Z,100.00
2023-05-20T23:53:36.303Z,100.00
2023-05-20T23:58:32.651Z,100.00
